sensor_id;sensor_type;location;lat;lon;timestamp;P1;durP1;ratioP1;P2;durP2;ratioP2
41817;SDS011;27493;51.730;5.294;2022-11-15T00:00:02;45.00;;;21.73;;
41817;SDS011;27493;51.730;5.294;2022-11-15T00:02:28;46.93;;;21.80;;
41817;SDS011;27493;51.730;5.294;2022-11-15T00:04:53;43.97;;;20.93;;
41817;SDS011;27493;51.730;5.294;2022-11-15T00:07:18;44.63;;;20.97;;
41817;SDS011;27493;51.730;5.294;2022-11-15T00:09:43;45.63;;;21.10;;
41817;SDS011;27493;51.730;5.294;2022-11-15T00:12:09;45.30;;;20.00;;
41817;SDS011;27493;51.730;5.294;2022-11-15T00:14:34;47.37;;;22.10;;
41817;SDS011;27493;51.730;5.294;2022-11-15T00:16:59;46.47;;;20.43;;
41817;SDS011;27493;51.730;5.294;2022-11-15T00:19:24;50.97;;;20.87;;
41817;SDS011;27493;51.730;5.294;2022-11-15T00:21:49;48.43;;;20.63;;
41817;SDS011;27493;51.730;5.294;2022-11-15T00:24:14;47.87;;;21.77;;
41817;SDS011;27493;51.730;5.294;2022-11-15T00:26:40;55.60;;;22.50;;
41817;SDS011;27493;51.730;5.294;2022-11-15T00:29:05;48.80;;;21.73;;
41817;SDS011;27493;51.730;5.294;2022-11-15T00:31:30;46.83;;;22.13;;
41817;SDS011;27493;51.730;5.294;2022-11-15T00:33:55;45.67;;;20.93;;
41817;SDS011;27493;51.730;5.294;2022-11-15T00:36:20;48.80;;;22.00;;
41817;SDS011;27493;51.730;5.294;2022-11-15T00:38:47;50.97;;;21.27;;
41817;SDS011;27493;51.730;5.294;2022-11-15T00:41:12;58.07;;;22.23;;
41817;SDS011;27493;51.730;5.294;2022-11-15T00:43:37;43.97;;;20.00;;
41817;SDS011;27493;51.730;5.294;2022-11-15T00:46:04;47.97;;;21.77;;
41817;SDS011;27493;51.730;5.294;2022-11-15T00:48:29;47.23;;;21.03;;
41817;SDS011;27493;51.730;5.294;2022-11-15T00:50:55;40.13;;;20.43;;
41817;SDS011;27493;51.730;5.294;2022-11-15T00:53:20;41.90;;;20.87;;
41817;SDS011;27493;51.730;5.294;2022-11-15T00:55:46;47.73;;;20.90;;
41817;SDS011;27493;51.730;5.294;2022-11-15T00:58:11;44.97;;;20.00;;
41817;SDS011;27493;51.730;5.294;2022-11-15T01:00:36;39.60;;;20.00;;
41817;SDS011;27493;51.730;5.294;2022-11-15T01:03:01;38.13;;;20.60;;
41817;SDS011;27493;51.730;5.294;2022-11-15T01:05:27;42.50;;;21.13;;
41817;SDS011;27493;51.730;5.294;2022-11-15T01:07:52;40.63;;;18.63;;
41817;SDS011;27493;51.730;5.294;2022-11-15T01:10:18;38.90;;;19.17;;
41817;SDS011;27493;51.730;5.294;2022-11-15T01:12:43;38.57;;;20.40;;
41817;SDS011;27493;51.730;5.294;2022-11-15T01:15:08;37.93;;;19.90;;
41817;SDS011;27493;51.730;5.294;2022-11-15T01:17:33;33.40;;;19.17;;
41817;SDS011;27493;51.730;5.294;2022-11-15T01:19:59;33.33;;;18.87;;
41817;SDS011;27493;51.730;5.294;2022-11-15T01:22:24;38.17;;;18.83;;
41817;SDS011;27493;51.730;5.294;2022-11-15T01:24:49;34.60;;;19.23;;
41817;SDS011;27493;51.730;5.294;2022-11-15T01:27:15;37.03;;;18.93;;
41817;SDS011;27493;51.730;5.294;2022-11-15T01:29:40;34.07;;;19.67;;
41817;SDS011;27493;51.730;5.294;2022-11-15T01:32:05;34.20;;;18.33;;
41817;SDS011;27493;51.730;5.294;2022-11-15T01:34:30;31.40;;;18.50;;
41817;SDS011;27493;51.730;5.294;2022-11-15T01:36:55;33.17;;;18.93;;
41817;SDS011;27493;51.730;5.294;2022-11-15T01:39:20;32.93;;;18.37;;
41817;SDS011;27493;51.730;5.294;2022-11-15T01:41:46;35.43;;;18.63;;
41817;SDS011;27493;51.730;5.294;2022-11-15T01:46:54;35.43;;;18.20;;
41817;SDS011;27493;51.730;5.294;2022-11-15T01:49:21;34.80;;;18.83;;
41817;SDS011;27493;51.730;5.294;2022-11-15T01:51:47;36.00;;;18.73;;
41817;SDS011;27493;51.730;5.294;2022-11-15T01:54:14;32.20;;;18.40;;
41817;SDS011;27493;51.730;5.294;2022-11-15T01:56:42;34.03;;;18.73;;
41817;SDS011;27493;51.730;5.294;2022-11-15T01:59:08;39.87;;;19.23;;
41817;SDS011;27493;51.730;5.294;2022-11-15T02:01:34;34.23;;;19.00;;
41817;SDS011;27493;51.730;5.294;2022-11-15T02:04:20;32.27;;;18.57;;
41817;SDS011;27493;51.730;5.294;2022-11-15T02:06:46;30.80;;;17.43;;
41817;SDS011;27493;51.730;5.294;2022-11-15T02:09:11;35.63;;;19.03;;
41817;SDS011;27493;51.730;5.294;2022-11-15T02:11:37;34.47;;;17.93;;
41817;SDS011;27493;51.730;5.294;2022-11-15T02:14:02;30.73;;;18.13;;
41817;SDS011;27493;51.730;5.294;2022-11-15T02:21:55;34.30;;;18.20;;
41817;SDS011;27493;51.730;5.294;2022-11-15T02:29:26;35.70;;;18.30;;
41817;SDS011;27493;51.730;5.294;2022-11-15T02:39:38;36.40;;;18.23;;
41817;SDS011;27493;51.730;5.294;2022-11-15T02:42:25;37.20;;;19.53;;
41817;SDS011;27493;51.730;5.294;2022-11-15T02:45:11;32.40;;;17.53;;
41817;SDS011;27493;51.730;5.294;2022-11-15T02:47:40;36.47;;;19.47;;
41817;SDS011;27493;51.730;5.294;2022-11-15T02:50:08;35.63;;;19.13;;
41817;SDS011;27493;51.730;5.294;2022-11-15T02:52:34;36.30;;;18.90;;
41817;SDS011;27493;51.730;5.294;2022-11-15T02:55:00;36.00;;;19.13;;
41817;SDS011;27493;51.730;5.294;2022-11-15T03:05:15;37.77;;;20.13;;
41817;SDS011;27493;51.730;5.294;2022-11-15T03:10:31;36.13;;;19.50;;
41817;SDS011;27493;51.730;5.294;2022-11-15T03:15:50;40.70;;;19.37;;
41817;SDS011;27493;51.730;5.294;2022-11-15T03:18:19;36.67;;;19.47;;
41817;SDS011;27493;51.730;5.294;2022-11-15T03:20:46;33.40;;;19.17;;
41817;SDS011;27493;51.730;5.294;2022-11-15T03:23:11;33.40;;;19.17;;
41817;SDS011;27493;51.730;5.294;2022-11-15T03:25:39;35.37;;;19.77;;
41817;SDS011;27493;51.730;5.294;2022-11-15T03:28:05;35.60;;;18.87;;
41817;SDS011;27493;51.730;5.294;2022-11-15T03:30:32;36.90;;;19.67;;
41817;SDS011;27493;51.730;5.294;2022-11-15T03:32:57;34.53;;;19.10;;
41817;SDS011;27493;51.730;5.294;2022-11-15T03:35:25;38.43;;;19.47;;
41817;SDS011;27493;51.730;5.294;2022-11-15T03:37:57;30.50;;;18.20;;
41817;SDS011;27493;51.730;5.294;2022-11-15T03:43:22;34.47;;;19.87;;
41817;SDS011;27493;51.730;5.294;2022-11-15T03:45:54;35.87;;;18.97;;
41817;SDS011;27493;51.730;5.294;2022-11-15T03:48:21;39.30;;;20.37;;
41817;SDS011;27493;51.730;5.294;2022-11-15T03:50:47;37.37;;;19.80;;
41817;SDS011;27493;51.730;5.294;2022-11-15T03:53:13;32.70;;;18.30;;
41817;SDS011;27493;51.730;5.294;2022-11-15T03:55:38;37.83;;;20.17;;
41817;SDS011;27493;51.730;5.294;2022-11-15T03:58:04;34.43;;;19.73;;
41817;SDS011;27493;51.730;5.294;2022-11-15T04:00:29;36.13;;;19.53;;
41817;SDS011;27493;51.730;5.294;2022-11-15T04:02:54;36.43;;;19.30;;
41817;SDS011;27493;51.730;5.294;2022-11-15T04:05:20;35.87;;;18.37;;
41817;SDS011;27493;51.730;5.294;2022-11-15T04:07:45;36.07;;;18.97;;
41817;SDS011;27493;51.730;5.294;2022-11-15T04:10:10;36.47;;;20.10;;
41817;SDS011;27493;51.730;5.294;2022-11-15T04:12:36;35.17;;;19.63;;
41817;SDS011;27493;51.730;5.294;2022-11-15T04:17:37;35.13;;;19.03;;
41817;SDS011;27493;51.730;5.294;2022-11-15T04:20:03;37.10;;;19.00;;
41817;SDS011;27493;51.730;5.294;2022-11-15T04:22:48;34.40;;;19.70;;
41817;SDS011;27493;51.730;5.294;2022-11-15T04:25:32;33.97;;;19.33;;
41817;SDS011;27493;51.730;5.294;2022-11-15T04:27:57;35.93;;;20.00;;
41817;SDS011;27493;51.730;5.294;2022-11-15T04:30:22;36.57;;;20.67;;
41817;SDS011;27493;51.730;5.294;2022-11-15T04:32:47;36.03;;;20.17;;
41817;SDS011;27493;51.730;5.294;2022-11-15T04:35:12;35.17;;;19.67;;
41817;SDS011;27493;51.730;5.294;2022-11-15T04:37:37;38.83;;;20.53;;
41817;SDS011;27493;51.730;5.294;2022-11-15T04:40:03;41.30;;;21.43;;
41817;SDS011;27493;51.730;5.294;2022-11-15T04:42:28;45.13;;;20.50;;
41817;SDS011;27493;51.730;5.294;2022-11-15T04:44:53;39.23;;;21.00;;
41817;SDS011;27493;51.730;5.294;2022-11-15T04:47:19;37.90;;;20.00;;
41817;SDS011;27493;51.730;5.294;2022-11-15T04:49:44;38.93;;;20.43;;
41817;SDS011;27493;51.730;5.294;2022-11-15T04:52:09;40.23;;;20.73;;
41817;SDS011;27493;51.730;5.294;2022-11-15T04:54:34;38.57;;;21.40;;
41817;SDS011;27493;51.730;5.294;2022-11-15T04:56:59;43.30;;;22.00;;
41817;SDS011;27493;51.730;5.294;2022-11-15T04:59:25;44.07;;;21.13;;
41817;SDS011;27493;51.730;5.294;2022-11-15T05:01:50;40.47;;;21.07;;
41817;SDS011;27493;51.730;5.294;2022-11-15T05:04:15;42.33;;;20.97;;
41817;SDS011;27493;51.730;5.294;2022-11-15T05:06:47;41.57;;;20.70;;
41817;SDS011;27493;51.730;5.294;2022-11-15T05:09:12;41.80;;;21.13;;
41817;SDS011;27493;51.730;5.294;2022-11-15T05:11:40;42.07;;;20.17;;
41817;SDS011;27493;51.730;5.294;2022-11-15T05:14:06;41.03;;;20.67;;
41817;SDS011;27493;51.730;5.294;2022-11-15T05:16:31;38.73;;;20.83;;
41817;SDS011;27493;51.730;5.294;2022-11-15T05:18:56;42.43;;;20.27;;
41817;SDS011;27493;51.730;5.294;2022-11-15T05:21:21;43.37;;;20.47;;
41817;SDS011;27493;51.730;5.294;2022-11-15T05:23:47;37.67;;;19.97;;
41817;SDS011;27493;51.730;5.294;2022-11-15T05:26:12;38.70;;;20.80;;
41817;SDS011;27493;51.730;5.294;2022-11-15T05:28:37;41.10;;;20.50;;
41817;SDS011;27493;51.730;5.294;2022-11-15T05:31:04;39.00;;;19.27;;
41817;SDS011;27493;51.730;5.294;2022-11-15T05:33:29;39.80;;;19.57;;
41817;SDS011;27493;51.730;5.294;2022-11-15T05:35:56;37.20;;;19.77;;
41817;SDS011;27493;51.730;5.294;2022-11-15T05:38:23;37.27;;;18.40;;
41817;SDS011;27493;51.730;5.294;2022-11-15T05:40:48;39.23;;;19.63;;
41817;SDS011;27493;51.730;5.294;2022-11-15T05:43:13;36.03;;;19.77;;
41817;SDS011;27493;51.730;5.294;2022-11-15T05:45:39;35.83;;;20.20;;
41817;SDS011;27493;51.730;5.294;2022-11-15T05:48:05;36.63;;;19.03;;
41817;SDS011;27493;51.730;5.294;2022-11-15T05:50:31;37.70;;;19.23;;
41817;SDS011;27493;51.730;5.294;2022-11-15T05:52:56;35.63;;;18.50;;
41817;SDS011;27493;51.730;5.294;2022-11-15T05:55:22;38.00;;;19.07;;
41817;SDS011;27493;51.730;5.294;2022-11-15T05:57:47;41.27;;;19.10;;
41817;SDS011;27493;51.730;5.294;2022-11-15T06:00:12;37.97;;;18.93;;
41817;SDS011;27493;51.730;5.294;2022-11-15T06:02:38;33.40;;;18.20;;
41817;SDS011;27493;51.730;5.294;2022-11-15T06:05:03;35.67;;;18.93;;
41817;SDS011;27493;51.730;5.294;2022-11-15T06:07:28;38.13;;;17.83;;
41817;SDS011;27493;51.730;5.294;2022-11-15T06:09:54;35.27;;;17.13;;
41817;SDS011;27493;51.730;5.294;2022-11-15T06:12:19;32.43;;;16.83;;
41817;SDS011;27493;51.730;5.294;2022-11-15T06:14:44;33.47;;;17.90;;
41817;SDS011;27493;51.730;5.294;2022-11-15T06:17:09;34.07;;;17.60;;
41817;SDS011;27493;51.730;5.294;2022-11-15T06:19:34;34.10;;;17.97;;
41817;SDS011;27493;51.730;5.294;2022-11-15T06:21:59;37.40;;;17.87;;
41817;SDS011;27493;51.730;5.294;2022-11-15T06:24:25;37.30;;;18.23;;
41817;SDS011;27493;51.730;5.294;2022-11-15T06:26:50;32.20;;;17.53;;
41817;SDS011;27493;51.730;5.294;2022-11-15T06:29:15;32.83;;;17.87;;
41817;SDS011;27493;51.730;5.294;2022-11-15T06:31:40;33.40;;;19.00;;
41817;SDS011;27493;51.730;5.294;2022-11-15T06:34:06;33.87;;;18.50;;
41817;SDS011;27493;51.730;5.294;2022-11-15T06:36:31;42.33;;;17.27;;
41817;SDS011;27493;51.730;5.294;2022-11-15T06:38:58;37.87;;;17.60;;
41817;SDS011;27493;51.730;5.294;2022-11-15T06:41:24;33.53;;;17.27;;
41817;SDS011;27493;51.730;5.294;2022-11-15T06:43:49;37.30;;;17.63;;
41817;SDS011;27493;51.730;5.294;2022-11-15T06:46:14;32.13;;;16.63;;
41817;SDS011;27493;51.730;5.294;2022-11-15T06:48:39;32.03;;;18.17;;
41817;SDS011;27493;51.730;5.294;2022-11-15T06:51:04;36.23;;;17.53;;
41817;SDS011;27493;51.730;5.294;2022-11-15T06:53:30;28.60;;;16.60;;
41817;SDS011;27493;51.730;5.294;2022-11-15T06:55:59;29.67;;;16.90;;
41817;SDS011;27493;51.730;5.294;2022-11-15T06:58:25;33.80;;;16.80;;
41817;SDS011;27493;51.730;5.294;2022-11-15T07:00:50;32.87;;;15.80;;
41817;SDS011;27493;51.730;5.294;2022-11-15T07:03:15;30.83;;;16.20;;
41817;SDS011;27493;51.730;5.294;2022-11-15T07:05:41;31.03;;;15.73;;
41817;SDS011;27493;51.730;5.294;2022-11-15T07:08:06;32.73;;;16.30;;
41817;SDS011;27493;51.730;5.294;2022-11-15T07:10:31;30.97;;;15.90;;
41817;SDS011;27493;51.730;5.294;2022-11-15T07:12:56;33.83;;;15.77;;
41817;SDS011;27493;51.730;5.294;2022-11-15T07:15:22;35.20;;;16.00;;
41817;SDS011;27493;51.730;5.294;2022-11-15T07:17:48;27.43;;;15.63;;
41817;SDS011;27493;51.730;5.294;2022-11-15T07:20:13;29.20;;;15.13;;
41817;SDS011;27493;51.730;5.294;2022-11-15T07:22:39;26.37;;;15.00;;
41817;SDS011;27493;51.730;5.294;2022-11-15T07:25:04;27.67;;;15.13;;
41817;SDS011;27493;51.730;5.294;2022-11-15T07:27:30;27.40;;;14.87;;
41817;SDS011;27493;51.730;5.294;2022-11-15T07:29:55;28.20;;;14.03;;
41817;SDS011;27493;51.730;5.294;2022-11-15T07:32:20;30.13;;;14.80;;
41817;SDS011;27493;51.730;5.294;2022-11-15T07:34:45;29.03;;;14.87;;
41817;SDS011;27493;51.730;5.294;2022-11-15T07:37:11;27.47;;;15.33;;
41817;SDS011;27493;51.730;5.294;2022-11-15T07:39:36;26.30;;;13.83;;
41817;SDS011;27493;51.730;5.294;2022-11-15T07:42:01;27.30;;;14.93;;
41817;SDS011;27493;51.730;5.294;2022-11-15T07:44:45;26.33;;;14.83;;
41817;SDS011;27493;51.730;5.294;2022-11-15T07:47:10;26.87;;;14.60;;
41817;SDS011;27493;51.730;5.294;2022-11-15T07:49:35;27.33;;;15.40;;
41817;SDS011;27493;51.730;5.294;2022-11-15T07:52:00;26.50;;;14.07;;
41817;SDS011;27493;51.730;5.294;2022-11-15T07:54:26;26.27;;;14.13;;
41817;SDS011;27493;51.730;5.294;2022-11-15T07:56:51;29.57;;;14.73;;
41817;SDS011;27493;51.730;5.294;2022-11-15T07:59:16;32.73;;;13.90;;
41817;SDS011;27493;51.730;5.294;2022-11-15T08:01:41;25.47;;;14.20;;
41817;SDS011;27493;51.730;5.294;2022-11-15T08:04:06;25.50;;;14.07;;
41817;SDS011;27493;51.730;5.294;2022-11-15T08:06:31;23.90;;;13.63;;
41817;SDS011;27493;51.730;5.294;2022-11-15T08:08:57;30.93;;;15.33;;
41817;SDS011;27493;51.730;5.294;2022-11-15T08:11:22;28.87;;;15.53;;
41817;SDS011;27493;51.730;5.294;2022-11-15T08:13:47;26.73;;;15.10;;
41817;SDS011;27493;51.730;5.294;2022-11-15T08:16:12;29.00;;;15.43;;
41817;SDS011;27493;51.730;5.294;2022-11-15T08:18:37;26.13;;;15.40;;
41817;SDS011;27493;51.730;5.294;2022-11-15T08:21:03;24.67;;;15.27;;
41817;SDS011;27493;51.730;5.294;2022-11-15T08:23:28;28.70;;;14.73;;
41817;SDS011;27493;51.730;5.294;2022-11-15T08:25:58;25.33;;;14.63;;
41817;SDS011;27493;51.730;5.294;2022-11-15T08:28:23;28.10;;;15.43;;
41817;SDS011;27493;51.730;5.294;2022-11-15T08:30:49;25.47;;;13.97;;
41817;SDS011;27493;51.730;5.294;2022-11-15T08:33:14;24.70;;;14.20;;
41817;SDS011;27493;51.730;5.294;2022-11-15T08:35:40;20.77;;;13.50;;
41817;SDS011;27493;51.730;5.294;2022-11-15T08:38:05;27.73;;;13.53;;
41817;SDS011;27493;51.730;5.294;2022-11-15T08:40:30;20.67;;;12.37;;
41817;SDS011;27493;51.730;5.294;2022-11-15T08:42:55;23.90;;;12.60;;
41817;SDS011;27493;51.730;5.294;2022-11-15T08:45:21;22.03;;;12.30;;
41817;SDS011;27493;51.730;5.294;2022-11-15T08:47:46;21.70;;;11.97;;
41817;SDS011;27493;51.730;5.294;2022-11-15T08:50:11;21.23;;;12.33;;
41817;SDS011;27493;51.730;5.294;2022-11-15T08:52:36;18.77;;;11.47;;
41817;SDS011;27493;51.730;5.294;2022-11-15T08:55:01;16.47;;;10.83;;
41817;SDS011;27493;51.730;5.294;2022-11-15T08:57:30;19.60;;;10.97;;
41817;SDS011;27493;51.730;5.294;2022-11-15T08:59:55;16.50;;;10.57;;
41817;SDS011;27493;51.730;5.294;2022-11-15T09:02:21;22.57;;;10.77;;
41817;SDS011;27493;51.730;5.294;2022-11-15T09:04:46;20.23;;;11.47;;
41817;SDS011;27493;51.730;5.294;2022-11-15T09:07:11;20.33;;;11.53;;
41817;SDS011;27493;51.730;5.294;2022-11-15T09:09:37;18.93;;;11.07;;
41817;SDS011;27493;51.730;5.294;2022-11-15T09:12:02;19.67;;;11.67;;
41817;SDS011;27493;51.730;5.294;2022-11-15T09:14:27;19.73;;;10.67;;
41817;SDS011;27493;51.730;5.294;2022-11-15T09:16:53;14.93;;;10.27;;
41817;SDS011;27493;51.730;5.294;2022-11-15T09:19:18;15.10;;;9.77;;
41817;SDS011;27493;51.730;5.294;2022-11-15T09:21:43;15.60;;;9.50;;
41817;SDS011;27493;51.730;5.294;2022-11-15T09:24:08;14.53;;;9.30;;
41817;SDS011;27493;51.730;5.294;2022-11-15T09:26:33;14.03;;;8.53;;
41817;SDS011;27493;51.730;5.294;2022-11-15T09:28:59;13.63;;;7.70;;
41817;SDS011;27493;51.730;5.294;2022-11-15T09:31:26;11.53;;;7.30;;
41817;SDS011;27493;51.730;5.294;2022-11-15T09:33:51;11.63;;;7.23;;
41817;SDS011;27493;51.730;5.294;2022-11-15T09:36:16;11.00;;;7.07;;
41817;SDS011;27493;51.730;5.294;2022-11-15T09:38:41;13.80;;;6.60;;
41817;SDS011;27493;51.730;5.294;2022-11-15T09:43:35;9.48;;;6.32;;
41817;SDS011;27493;51.730;5.294;2022-11-15T09:48:50;8.03;;;5.30;;
41817;SDS011;27493;51.730;5.294;2022-11-15T09:51:39;6.03;;;4.53;;
41817;SDS011;27493;51.730;5.294;2022-11-15T09:54:56;9.30;;;4.20;;
41817;SDS011;27493;51.730;5.294;2022-11-15T09:59:49;6.23;;;3.80;;
41817;SDS011;27493;51.730;5.294;2022-11-15T10:02:27;3.40;;;3.10;;
41817;SDS011;27493;51.730;5.294;2022-11-15T10:04:54;7.17;;;3.83;;
41817;SDS011;27493;51.730;5.294;2022-11-15T10:07:27;4.20;;;3.03;;
41817;SDS011;27493;51.730;5.294;2022-11-15T10:12:24;5.17;;;3.00;;
41817;SDS011;27493;51.730;5.294;2022-11-15T10:14:50;4.80;;;3.17;;
41817;SDS011;27493;51.730;5.294;2022-11-15T10:22:34;8.10;;;2.80;;
41817;SDS011;27493;51.730;5.294;2022-11-15T10:27:28;4.87;;;2.50;;
41817;SDS011;27493;51.730;5.294;2022-11-15T10:29:54;6.17;;;2.40;;
41817;SDS011;27493;51.730;5.294;2022-11-15T10:32:20;5.33;;;2.13;;
41817;SDS011;27493;51.730;5.294;2022-11-15T10:34:45;4.27;;;2.10;;
41817;SDS011;27493;51.730;5.294;2022-11-15T10:37:11;5.03;;;2.53;;
41817;SDS011;27493;51.730;5.294;2022-11-15T10:39:36;4.27;;;2.00;;
41817;SDS011;27493;51.730;5.294;2022-11-15T10:44:46;4.83;;;2.30;;
41817;SDS011;27493;51.730;5.294;2022-11-15T10:49:56;5.67;;;2.73;;
41817;SDS011;27493;51.730;5.294;2022-11-15T10:52:22;4.00;;;2.10;;
41817;SDS011;27493;51.730;5.294;2022-11-15T10:55:34;3.63;;;1.90;;
41817;SDS011;27493;51.730;5.294;2022-11-15T10:57:37;7.43;;;2.13;;
41817;SDS011;27493;51.730;5.294;2022-11-15T11:00:05;10.60;;;2.70;;
41817;SDS011;27493;51.730;5.294;2022-11-15T11:02:31;4.07;;;1.77;;
41817;SDS011;27493;51.730;5.294;2022-11-15T11:04:57;5.13;;;1.80;;
41817;SDS011;27493;51.730;5.294;2022-11-15T11:07:27;5.17;;;1.83;;
41817;SDS011;27493;51.730;5.294;2022-11-15T11:12:27;5.73;;;1.83;;
41817;SDS011;27493;51.730;5.294;2022-11-15T11:14:52;4.67;;;1.80;;
41817;SDS011;27493;51.730;5.294;2022-11-15T11:17:42;4.37;;;1.70;;
41817;SDS011;27493;51.730;5.294;2022-11-15T11:23:00;3.17;;;1.50;;
41817;SDS011;27493;51.730;5.294;2022-11-15T11:25:34;5.93;;;1.50;;
41817;SDS011;27493;51.730;5.294;2022-11-15T11:30:39;5.80;;;1.97;;
41817;SDS011;27493;51.730;5.294;2022-11-15T11:33:20;3.93;;;1.40;;
41817;SDS011;27493;51.730;5.294;2022-11-15T11:36:32;4.40;;;1.50;;
41817;SDS011;27493;51.730;5.294;2022-11-15T11:38:51;4.57;;;1.60;;
41817;SDS011;27493;51.730;5.294;2022-11-15T11:49:16;5.00;;;1.67;;
41817;SDS011;27493;51.730;5.294;2022-11-15T11:51:45;4.50;;;2.03;;
41817;SDS011;27493;51.730;5.294;2022-11-15T11:54:14;4.77;;;1.30;;
41817;SDS011;27493;51.730;5.294;2022-11-15T11:56:43;5.33;;;1.53;;
41817;SDS011;27493;51.730;5.294;2022-11-15T12:04:53;5.97;;;1.30;;
41817;SDS011;27493;51.730;5.294;2022-11-15T12:07:25;3.53;;;1.70;;
41817;SDS011;27493;51.730;5.294;2022-11-15T12:09:58;3.20;;;1.93;;
41817;SDS011;27493;51.730;5.294;2022-11-15T12:12:29;4.57;;;1.30;;
41817;SDS011;27493;51.730;5.294;2022-11-15T12:17:23;6.00;;;1.40;;
41817;SDS011;27493;51.730;5.294;2022-11-15T12:19:48;4.23;;;1.43;;
41817;SDS011;27493;51.730;5.294;2022-11-15T12:22:17;5.83;;;1.70;;
41817;SDS011;27493;51.730;5.294;2022-11-15T12:24:57;3.63;;;1.30;;
41817;SDS011;27493;51.730;5.294;2022-11-15T12:30:00;1.77;;;1.17;;
41817;SDS011;27493;51.730;5.294;2022-11-15T12:32:30;3.87;;;1.40;;
41817;SDS011;27493;51.730;5.294;2022-11-15T12:34:57;7.33;;;1.60;;
41817;SDS011;27493;51.730;5.294;2022-11-15T12:42:56;4.80;;;1.73;;
41817;SDS011;27493;51.730;5.294;2022-11-15T12:45:23;4.67;;;1.50;;
41817;SDS011;27493;51.730;5.294;2022-11-15T12:47:49;4.20;;;1.30;;
41817;SDS011;27493;51.730;5.294;2022-11-15T12:50:14;2.17;;;1.37;;
41817;SDS011;27493;51.730;5.294;2022-11-15T12:53:02;3.90;;;1.70;;
41817;SDS011;27493;51.730;5.294;2022-11-15T12:55:29;4.40;;;1.30;;
41817;SDS011;27493;51.730;5.294;2022-11-15T12:57:55;6.47;;;1.70;;
41817;SDS011;27493;51.730;5.294;2022-11-15T13:02:45;4.47;;;1.40;;
41817;SDS011;27493;51.730;5.294;2022-11-15T13:22:40;3.53;;;1.43;;
41817;SDS011;27493;51.730;5.294;2022-11-15T13:27:49;3.43;;;1.30;;
41817;SDS011;27493;51.730;5.294;2022-11-15T13:30:19;3.47;;;1.30;;
41817;SDS011;27493;51.730;5.294;2022-11-15T13:32:45;6.63;;;1.50;;
41817;SDS011;27493;51.730;5.294;2022-11-15T13:35:17;4.97;;;1.70;;
41817;SDS011;27493;51.730;5.294;2022-11-15T13:37:43;7.50;;;1.60;;
41817;SDS011;27493;51.730;5.294;2022-11-15T13:42:50;4.17;;;1.60;;
41817;SDS011;27493;51.730;5.294;2022-11-15T13:45:16;2.97;;;1.50;;
41817;SDS011;27493;51.730;5.294;2022-11-15T13:47:42;10.10;;;1.50;;
41817;SDS011;27493;51.730;5.294;2022-11-15T13:50:11;4.37;;;1.60;;
41817;SDS011;27493;51.730;5.294;2022-11-15T13:52:36;5.23;;;1.67;;
41817;SDS011;27493;51.730;5.294;2022-11-15T13:55:14;3.57;;;1.60;;
41817;SDS011;27493;51.730;5.294;2022-11-15T14:02:53;2.77;;;1.50;;
41817;SDS011;27493;51.730;5.294;2022-11-15T14:05:20;4.20;;;1.57;;
41817;SDS011;27493;51.730;5.294;2022-11-15T14:10:37;3.67;;;1.37;;
41817;SDS011;27493;51.730;5.294;2022-11-15T14:13:03;6.13;;;1.80;;
41817;SDS011;27493;51.730;5.294;2022-11-15T14:17:54;4.30;;;1.40;;
41817;SDS011;27493;51.730;5.294;2022-11-15T14:20:30;7.43;;;1.60;;
41817;SDS011;27493;51.730;5.294;2022-11-15T14:23:01;3.00;;;1.60;;
41817;SDS011;27493;51.730;5.294;2022-11-15T14:25:30;3.53;;;1.60;;
41817;SDS011;27493;51.730;5.294;2022-11-15T14:30:40;4.50;;;1.70;;
41817;SDS011;27493;51.730;5.294;2022-11-15T14:35:51;3.87;;;1.67;;
41817;SDS011;27493;51.730;5.294;2022-11-15T14:38:17;4.67;;;1.47;;
41817;SDS011;27493;51.730;5.294;2022-11-15T14:40:42;2.77;;;1.70;;
41817;SDS011;27493;51.730;5.294;2022-11-15T14:43:08;2.27;;;1.57;;
41817;SDS011;27493;51.730;5.294;2022-11-15T14:45:34;4.53;;;1.97;;
41817;SDS011;27493;51.730;5.294;2022-11-15T14:47:59;5.10;;;1.73;;
41817;SDS011;27493;51.730;5.294;2022-11-15T14:50:24;3.00;;;1.50;;
41817;SDS011;27493;51.730;5.294;2022-11-15T14:52:50;5.57;;;1.63;;
41817;SDS011;27493;51.730;5.294;2022-11-15T14:55:22;3.07;;;1.70;;
41817;SDS011;27493;51.730;5.294;2022-11-15T14:57:48;4.47;;;1.60;;
41817;SDS011;27493;51.730;5.294;2022-11-15T15:00:14;4.50;;;2.10;;
41817;SDS011;27493;51.730;5.294;2022-11-15T15:02:40;5.00;;;1.80;;
41817;SDS011;27493;51.730;5.294;2022-11-15T15:05:48;6.67;;;2.10;;
41817;SDS011;27493;51.730;5.294;2022-11-15T15:07:54;3.60;;;2.50;;
41817;SDS011;27493;51.730;5.294;2022-11-15T15:10:20;5.03;;;1.87;;
41817;SDS011;27493;51.730;5.294;2022-11-15T15:12:45;5.03;;;2.40;;
41817;SDS011;27493;51.730;5.294;2022-11-15T15:15:12;3.97;;;1.60;;
41817;SDS011;27493;51.730;5.294;2022-11-15T15:17:38;4.37;;;2.07;;
41817;SDS011;27493;51.730;5.294;2022-11-15T15:20:03;5.73;;;2.00;;
41817;SDS011;27493;51.730;5.294;2022-11-15T15:22:28;5.90;;;1.90;;
41817;SDS011;27493;51.730;5.294;2022-11-15T15:24:54;3.73;;;1.63;;
41817;SDS011;27493;51.730;5.294;2022-11-15T15:27:19;3.57;;;1.90;;
41817;SDS011;27493;51.730;5.294;2022-11-15T15:29:44;5.03;;;2.00;;
41817;SDS011;27493;51.730;5.294;2022-11-15T15:32:09;4.87;;;1.80;;
41817;SDS011;27493;51.730;5.294;2022-11-15T15:34:35;6.63;;;1.80;;
41817;SDS011;27493;51.730;5.294;2022-11-15T15:37:07;5.43;;;1.80;;
41817;SDS011;27493;51.730;5.294;2022-11-15T15:39:32;2.40;;;1.70;;
41817;SDS011;27493;51.730;5.294;2022-11-15T15:41:57;4.03;;;2.20;;
41817;SDS011;27493;51.730;5.294;2022-11-15T15:44:23;2.93;;;1.60;;
41817;SDS011;27493;51.730;5.294;2022-11-15T15:46:48;5.07;;;1.80;;
41817;SDS011;27493;51.730;5.294;2022-11-15T15:49:13;4.93;;;1.77;;
41817;SDS011;27493;51.730;5.294;2022-11-15T15:51:38;5.77;;;1.97;;
41817;SDS011;27493;51.730;5.294;2022-11-15T15:54:03;4.00;;;1.80;;
41817;SDS011;27493;51.730;5.294;2022-11-15T15:56:28;3.83;;;1.80;;
41817;SDS011;27493;51.730;5.294;2022-11-15T15:58:54;4.37;;;2.20;;
41817;SDS011;27493;51.730;5.294;2022-11-15T16:01:20;3.60;;;2.00;;
41817;SDS011;27493;51.730;5.294;2022-11-15T16:03:45;4.33;;;2.00;;
41817;SDS011;27493;51.730;5.294;2022-11-15T16:06:25;2.83;;;1.87;;
41817;SDS011;27493;51.730;5.294;2022-11-15T16:08:54;6.37;;;2.10;;
41817;SDS011;27493;51.730;5.294;2022-11-15T16:11:19;7.30;;;2.40;;
41817;SDS011;27493;51.730;5.294;2022-11-15T16:13:45;2.83;;;1.83;;
41817;SDS011;27493;51.730;5.294;2022-11-15T16:16:12;3.47;;;1.60;;
41817;SDS011;27493;51.730;5.294;2022-11-15T16:18:37;3.63;;;1.80;;
41817;SDS011;27493;51.730;5.294;2022-11-15T16:21:02;5.90;;;2.00;;
41817;SDS011;27493;51.730;5.294;2022-11-15T16:23:27;5.20;;;2.13;;
41817;SDS011;27493;51.730;5.294;2022-11-15T16:25:53;4.33;;;2.27;;
41817;SDS011;27493;51.730;5.294;2022-11-15T16:28:28;5.40;;;2.30;;
41817;SDS011;27493;51.730;5.294;2022-11-15T16:33:25;3.67;;;2.43;;
41817;SDS011;27493;51.730;5.294;2022-11-15T16:35:50;4.00;;;2.20;;
41817;SDS011;27493;51.730;5.294;2022-11-15T16:38:15;3.07;;;2.20;;
41817;SDS011;27493;51.730;5.294;2022-11-15T16:40:41;4.17;;;2.20;;
41817;SDS011;27493;51.730;5.294;2022-11-15T16:43:06;7.03;;;2.40;;
41817;SDS011;27493;51.730;5.294;2022-11-15T16:45:33;5.87;;;2.60;;
41817;SDS011;27493;51.730;5.294;2022-11-15T16:47:58;4.30;;;2.50;;